Time;durP1;ratioP1;P1;durP2;ratioP2;P2;SDS_P1;SDS_P2;PMS_P1;PMS_P2;Temp;Humidity;BMP_temperature;BMP_pressure;BME280_temperature;BME280_humidity;BME280_pressure;Samples;Min_cycle;Max_cycle;Signal;HPM_P1;HPM_P2
2022/04/27 00:01:51;;;;;;;14.07;8.45;;;15.80;99.90;;;;;;4974476;28;20058;-63
2022/04/27 00:04:17;;;;;;;27.80;17.60;;;15.80;99.90;;;;;;4974009;28;20497;-71
2022/04/27 00:06:42;;;;;;;21.15;13.40;;;15.70;99.90;;;;;;4973171;28;20086;-69
2022/04/27 00:09:08;;;;;;;17.08;10.48;;;15.60;99.90;;;;;;4974434;28;20097;-69
2022/04/27 00:11:34;;;;;;;13.60;9.73;;;15.40;99.90;;;;;;4974239;28;20034;-63
2022/04/27 00:14:00;;;;;;;16.10;9.05;;;15.30;99.90;;;;;;4974180;28;20114;-66
2022/04/27 00:16:27;;;;;;;22.65;11.15;;;15.20;99.90;;;;;;4974546;28;20038;-64
2022/04/27 00:18:53;;;;;;;22.38;11.20;;;15.10;99.90;;;;;;4974139;28;20058;-65
2022/04/27 00:21:18;;;;;;;17.27;9.32;;;15.10;99.90;;;;;;4974180;28;20430;-67
2022/04/27 00:23:44;;;;;;;14.50;9.15;;;15.10;99.90;;;;;;4974226;28;20027;-70
2022/04/27 00:26:10;;;;;;;12.73;8.23;;;15.10;99.90;;;;;;4974291;28;20050;-68
2022/04/27 00:28:36;;;;;;;10.63;6.82;;;15.10;99.90;;;;;;4973117;28;20050;-65
2022/04/27 00:31:02;;;;;;;9.57;6.65;;;14.70;99.90;;;;;;4974242;28;20552;-64
2022/04/27 00:33:28;;;;;;;9.55;6.75;;;14.50;99.90;;;;;;4973884;28;20034;-66
2022/04/27 00:35:54;;;;;;;7.32;5.97;;;14.10;99.90;;;;;;4974090;28;20023;-68
2022/04/27 00:38:19;;;;;;;8.90;6.43;;;13.90;99.90;;;;;;4974106;28;20073;-67
2022/04/27 00:40:45;;;;;;;8.40;5.32;;;14.00;99.90;;;;;;4974179;28;20388;-66
2022/04/27 00:43:14;;;;;;;9.57;5.18;;;13.90;99.90;;;;;;4977396;28;20026;-68
2022/04/27 00:45:41;;;;;;;8.73;6.13;;;13.90;99.90;;;;;;4977640;28;20495;-65
2022/04/27 00:48:07;;;;;;;8.90;5.70;;;14.00;99.90;;;;;;4977551;28;20027;-68
2022/04/27 00:50:32;;;;;;;8.48;5.55;;;14.10;99.90;;;;;;4977514;28;20048;-66
2022/04/27 00:52:59;;;;;;;10.63;6.47;;;14.20;99.90;;;;;;4977331;28;20163;-68
2022/04/27 00:55:25;;;;;;;9.23;6.50;;;14.20;99.90;;;;;;4977390;28;20437;-69
2022/04/27 00:57:51;;;;;;;9.63;5.88;;;14.10;99.90;;;;;;4977359;28;20078;-69
2022/04/27 01:00:17;;;;;;;8.52;5.72;;;14.10;99.90;;;;;;4977351;28;20029;-70
2022/04/27 01:02:43;;;;;;;8.90;5.15;;;13.90;99.90;;;;;;4977547;28;20015;-66
2022/04/27 01:05:11;;;;;;;5.78;4.45;;;13.80;99.90;;;;;;4977338;28;20426;-62
2022/04/27 01:07:41;;;;;;;9.90;5.90;;;13.70;99.90;;;;;;4977165;28;20029;-64
2022/04/27 01:10:08;;;;;;;9.80;6.20;;;13.70;99.90;;;;;;4977280;28;20027;-67
2022/04/27 01:12:36;;;;;;;19.40;13.18;;;13.70;99.90;;;;;;4977208;28;20478;-66
2022/04/27 01:15:02;;;;;;;13.25;9.43;;;13.70;99.90;;;;;;4977006;28;20486;-67
2022/04/27 01:17:28;;;;;;;10.13;6.78;;;13.80;99.90;;;;;;4976770;28;20026;-68
2022/04/27 01:19:54;;;;;;;8.40;6.20;;;13.80;99.90;;;;;;4977176;28;20385;-67
2022/04/27 01:22:20;;;;;;;7.88;5.30;;;13.70;99.90;;;;;;4976943;28;20023;-69
2022/04/27 01:24:46;;;;;;;7.10;5.43;;;13.80;99.90;;;;;;4977044;28;20026;-67
2022/04/27 01:27:12;;;;;;;7.18;4.95;;;13.80;99.90;;;;;;4976871;28;20027;-71
2022/04/27 01:29:38;;;;;;;8.15;5.85;;;13.80;99.90;;;;;;4976772;28;20084;-66
2022/04/27 01:32:04;;;;;;;8.93;6.88;;;13.70;99.90;;;;;;4976776;28;20031;-67
2022/04/27 01:34:30;;;;;;;7.10;5.90;;;13.60;99.90;;;;;;4976721;28;20050;-68
2022/04/27 01:37:59;;;;;;;7.45;5.38;;;13.50;99.90;;;;;;4976675;28;20549;-64
2022/04/27 01:39:42;;;;;;;5.25;4.47;;;13.50;99.90;;;;;;4976546;28;20436;-68
2022/04/27 01:42:08;;;;;;;6.32;5.20;;;13.60;99.90;;;;;;4976534;28;20477;-63
2022/04/27 01:44:33;;;;;;;6.03;4.60;;;13.70;99.90;;;;;;4976543;28;20031;-66
2022/04/27 01:46:59;;;;;;;6.72;4.25;;;13.70;99.90;;;;;;4976380;28;20500;-70
2022/04/27 01:49:25;;;;;;;7.05;4.22;;;13.60;99.90;;;;;;4976480;28;20030;-64
2022/04/27 01:54:36;;;;;;;5.55;3.78;;;13.70;99.90;;;;;;4975340;28;20058;-68
2022/04/27 01:57:01;;;;;;;5.13;3.95;;;13.80;99.90;;;;;;4976302;28;20023;-68
2022/04/27 01:59:27;;;;;;;6.10;3.97;;;13.80;99.90;;;;;;4976257;28;20371;-64
2022/04/27 02:01:57;;;;;;;5.80;4.05;;;13.70;99.90;;;;;;4976126;28;20066;-65
2022/04/27 02:04:23;;;;;;;5.20;3.55;;;13.70;99.90;;;;;;4976164;28;20109;-68
2022/04/27 02:06:48;;;;;;;4.28;3.50;;;13.80;99.90;;;;;;4976267;28;20442;-65
2022/04/27 02:09:14;;;;;;;4.47;2.97;;;13.80;99.90;;;;;;4976095;28;20065;-69
2022/04/27 02:11:39;;;;;;;3.97;3.25;;;13.80;99.90;;;;;;4976047;28;20034;-70
2022/04/27 02:14:06;;;;;;;4.78;3.45;;;13.90;99.90;;;;;;4975779;28;20026;-66
2022/04/27 02:16:32;;;;;;;5.05;3.75;;;13.90;99.90;;;;;;4975989;28;20022;-64
2022/04/27 02:18:58;;;;;;;5.55;4.07;;;13.80;99.90;;;;;;4975846;28;20027;-71
2022/04/27 02:21:23;;;;;;;6.70;3.83;;;13.80;99.90;;;;;;4976009;28;20077;-65
2022/04/27 02:23:49;;;;;;;3.30;2.75;;;13.70;99.90;;;;;;4975890;28;20058;-63
2022/04/27 02:26:15;;;;;;;4.60;3.15;;;13.70;99.90;;;;;;4976056;28;20030;-65
2022/04/27 02:28:41;;;;;;;4.65;3.60;;;13.80;99.90;;;;;;4975480;28;20501;-67
2022/04/27 02:31:07;;;;;;;4.97;4.15;;;13.80;99.90;;;;;;4975611;28;20038;-64
2022/04/27 02:33:34;;;;;;;4.53;3.47;;;13.80;99.90;;;;;;4975629;28;20168;-62
2022/04/27 02:36:00;;;;;;;4.07;2.70;;;13.70;99.90;;;;;;4990548;28;20025;-68
2022/04/27 02:38:29;;;;;;;3.83;2.80;;;13.70;99.90;;;;;;4975603;28;20385;-68
2022/04/27 02:40:54;;;;;;;3.45;2.40;;;13.80;99.90;;;;;;4975552;28;20504;-69
2022/04/27 02:43:21;;;;;;;4.03;3.03;;;13.80;99.90;;;;;;4975243;28;20035;-66
2022/04/27 02:45:48;;;;;;;3.95;2.83;;;13.70;99.90;;;;;;4975725;28;20042;-67
2022/04/27 02:48:14;;;;;;;2.72;2.47;;;13.70;99.90;;;;;;4975524;28;20106;-68
2022/04/27 02:53:24;;;;;;;3.63;2.40;;;13.70;99.90;;;;;;4975177;28;20061;-67
2022/04/27 02:55:50;;;;;;;4.63;3.30;;;13.70;99.90;;;;;;4975108;28;20018;-67
2022/04/27 02:58:15;;;;;;;3.50;2.53;;;13.70;99.90;;;;;;4975203;28;20033;-65
2022/04/27 03:00:44;;;;;;;3.10;2.28;;;13.50;99.90;;;;;;4975362;28;20019;-68
2022/04/27 03:03:10;;;;;;;2.63;2.00;;;13.50;99.90;;;;;;4975066;28;20061;-72
2022/04/27 03:05:36;;;;;;;4.32;2.38;;;13.60;99.90;;;;;;4975045;28;20034;-68
2022/04/27 03:08:03;;;;;;;3.15;2.47;;;13.60;99.90;;;;;;4975118;28;20370;-64
2022/04/27 03:10:28;;;;;;;8.55;4.65;;;13.60;99.90;;;;;;4975078;28;20031;-67
2022/04/27 03:12:54;;;;;;;4.50;3.72;;;13.50;99.90;;;;;;4974672;28;20085;-67
2022/04/27 03:15:20;;;;;;;4.47;3.17;;;13.50;99.90;;;;;;4974996;28;20026;-67
2022/04/27 03:18:16;;;;;;;4.30;3.45;;;13.40;99.90;;;;;;4974877;28;20527;-67
2022/04/27 03:20:31;;;;;;;5.25;3.67;;;13.40;99.90;;;;;;4974785;28;20388;-67
2022/04/27 03:22:57;;;;;;;7.80;4.50;;;13.40;99.90;;;;;;4974881;28;20027;-65
2022/04/27 03:25:22;;;;;;;6.18;3.58;;;13.40;99.90;;;;;;4974752;28;20390;-68
2022/04/27 03:27:48;;;;;;;5.28;2.80;;;13.30;99.90;;;;;;4974734;28;20030;-67
2022/04/27 03:30:13;;;;;;;5.15;4.38;;;13.30;99.90;;;;;;4974800;28;20070;-69
2022/04/27 03:32:40;;;;;;;7.60;3.85;;;13.20;99.90;;;;;;4974605;28;20031;-66
2022/04/27 03:35:06;;;;;;;5.60;3.60;;;13.00;99.90;;;;;;4974713;28;20548;-69
2022/04/27 03:37:31;;;;;;;5.53;3.90;;;13.00;99.90;;;;;;4975164;28;20062;-70
2022/04/27 03:39:57;;;;;;;4.03;3.22;;;13.00;99.90;;;;;;4974646;28;20033;-67
2022/04/27 03:42:23;;;;;;;6.97;3.90;;;12.90;99.90;;;;;;4974635;28;20389;-67
2022/04/27 03:44:48;;;;;;;6.55;3.78;;;12.90;99.90;;;;;;4974674;28;20038;-66
2022/04/27 03:47:14;;;;;;;5.57;4.10;;;12.90;99.90;;;;;;4974546;28;20030;-66
2022/04/27 03:49:40;;;;;;;5.70;3.75;;;12.80;99.90;;;;;;4974460;28;20033;-64
2022/04/27 03:52:06;;;;;;;4.43;3.30;;;12.70;99.90;;;;;;4973252;28;20499;-65
2022/04/27 03:54:31;;;;;;;4.50;3.55;;;12.70;99.90;;;;;;4974173;28;20070;-67
2022/04/27 03:56:58;;;;;;;4.38;3.70;;;12.70;99.90;;;;;;4974197;28;20019;-67
2022/04/27 03:59:25;;;;;;;4.25;3.40;;;12.80;99.90;;;;;;4974588;28;20023;-68
2022/04/27 04:01:50;;;;;;;5.72;3.60;;;12.70;99.90;;;;;;4974418;28;20470;-69
2022/04/27 04:04:16;;;;;;;3.72;3.00;;;12.70;99.90;;;;;;4974333;28;20030;-65
2022/04/27 04:06:42;;;;;;;3.63;2.70;;;12.70;99.90;;;;;;4974379;28;20420;-63
2022/04/27 04:09:09;;;;;;;4.28;3.03;;;12.80;99.90;;;;;;4974631;28;20034;-67
2022/04/27 04:11:35;;;;;;;4.30;2.58;;;12.80;99.90;;;;;;4974117;28;20023;-64
2022/04/27 04:14:01;;;;;;;3.50;2.45;;;12.90;99.90;;;;;;4974288;28;20462;-69
2022/04/27 04:16:27;;;;;;;3.92;2.97;;;12.90;99.90;;;;;;4975252;28;20037;-67
2022/04/27 04:18:52;;;;;;;3.63;2.70;;;13.00;99.90;;;;;;4978383;28;20051;-68
2022/04/27 04:21:18;;;;;;;4.28;3.40;;;13.00;99.90;;;;;;4977988;28;20031;-70
2022/04/27 04:23:44;;;;;;;6.00;3.90;;;13.00;99.90;;;;;;4978108;28;20027;-68
2022/04/27 04:28:54;;;;;;;6.40;4.07;;;12.70;99.90;;;;;;4978055;28;20548;-66
2022/04/27 04:31:20;;;;;;;5.97;3.97;;;12.60;99.90;;;;;;4977941;28;20030;-70
2022/04/27 04:33:45;;;;;;;5.22;4.40;;;12.50;99.90;;;;;;4977647;28;20445;-66
2022/04/27 04:36:11;;;;;;;6.78;4.10;;;12.50;99.90;;;;;;4977939;28;20409;-69
2022/04/27 04:38:37;;;;;;;7.70;5.03;;;12.50;99.90;;;;;;4992785;28;20022;-67
2022/04/27 04:41:03;;;;;;;9.30;6.88;;;12.50;99.90;;;;;;5006488;28;20025;-65
2022/04/27 04:43:32;;;;;;;8.98;6.53;;;12.60;99.90;;;;;;5004768;28;20022;-66
2022/04/27 04:45:58;;;;;;;9.25;7.10;;;12.70;99.90;;;;;;4999652;28;20018;-71
2022/04/27 04:48:24;;;;;;;6.68;5.78;;;12.80;99.90;;;;;;4996944;28;20078;-62
2022/04/27 04:50:50;;;;;;;5.75;4.93;;;12.90;99.90;;;;;;4996782;28;20030;-68
2022/04/27 04:53:15;;;;;;;6.60;4.95;;;13.00;99.90;;;;;;4995713;28;20497;-67
2022/04/27 04:55:41;;;;;;;5.97;4.60;;;13.10;99.90;;;;;;4994577;28;20030;-66
2022/04/27 04:58:08;;;;;;;6.22;4.63;;;13.20;99.90;;;;;;5006099;28;20022;-69
2022/04/27 05:00:34;;;;;;;5.53;4.47;;;13.20;99.90;;;;;;5005470;28;20472;-72
2022/04/27 05:02:59;;;;;;;5.60;3.92;;;13.20;99.90;;;;;;5004493;28;20026;-68
2022/04/27 05:05:25;;;;;;;4.93;3.92;;;13.30;99.90;;;;;;5004075;28;20113;-65
2022/04/27 05:07:51;;;;;;;4.97;3.67;;;13.40;99.90;;;;;;4994441;28;20026;-69
2022/04/27 05:10:17;;;;;;;4.82;3.80;;;13.50;99.90;;;;;;4994464;28;20058;-68
2022/04/27 05:12:42;;;;;;;5.28;3.67;;;13.50;99.90;;;;;;4996283;28;20495;-67
2022/04/27 05:15:09;;;;;;;4.18;3.63;;;13.60;99.90;;;;;;4995796;28;20033;-69
2022/04/27 05:17:36;;;;;;;6.25;4.70;;;13.60;99.90;;;;;;4995852;28;20362;-70
2022/04/27 05:20:01;;;;;;;7.32;5.30;;;13.60;99.90;;;;;;4995035;28;20462;-67
2022/04/27 05:22:33;;;;;;;5.50;4.72;;;13.70;99.90;;;;;;4995486;28;20050;-64
2022/04/27 05:25:02;;;;;;;19.13;12.65;;;13.70;99.90;;;;;;4995222;28;20140;-67
2022/04/27 05:27:28;;;;;;;17.33;11.60;;;13.70;99.90;;;;;;4994786;28;20034;-66
2022/04/27 05:32:44;;;;;;;16.33;10.43;;;13.00;99.90;;;;;;4989701;28;20050;-63
2022/04/27 05:35:10;;;;;;;18.85;11.70;;;13.10;99.90;;;;;;4984090;28;20466;-65
2022/04/27 05:37:37;;;;;;;18.95;12.25;;;12.90;99.90;;;;;;4992111;28;20053;-65
2022/04/27 05:40:04;;;;;;;17.17;12.07;;;13.00;99.90;;;;;;4992382;28;20477;-67
2022/04/27 05:42:30;;;;;;;18.58;11.07;;;13.20;99.90;;;;;;4993148;28;20030;-70
2022/04/27 05:44:57;;;;;;;11.57;9.57;;;13.40;99.90;;;;;;4993808;28;20026;-68
2022/04/27 05:47:23;;;;;;;9.80;7.28;;;13.70;99.90;;;;;;4993147;28;20376;-72
2022/04/27 05:49:50;;;;;;;7.68;6.32;;;14.00;99.90;;;;;;4994636;28;20018;-66
2022/04/27 05:52:16;;;;;;;6.15;5.53;;;14.30;99.90;;;;;;4994006;28;20025;-68
2022/04/27 05:54:42;;;;;;;10.07;8.05;;;14.50;99.90;;;;;;4991764;28;20050;-66
2022/04/27 05:57:08;;;;;;;9.13;6.72;;;14.70;99.90;;;;;;4992872;28;20358;-66
2022/04/27 05:59:34;;;;;;;9.82;7.32;;;14.70;99.90;;;;;;4993682;28;20019;-65
2022/04/27 06:01:59;;;;;;;9.30;6.22;;;14.80;99.90;;;;;;4993765;28;20026;-71
2022/04/27 06:04:26;;;;;;;9.25;6.93;;;14.80;99.90;;;;;;4993443;28;20080;-72
2022/04/27 06:06:53;;;;;;;16.55;7.35;;;14.90;99.90;;;;;;4991238;28;20376;-64
2022/04/27 06:09:19;;;;;;;8.80;5.78;;;15.00;99.90;;;;;;4994231;28;20512;-66
2022/04/27 06:11:45;;;;;;;6.47;5.20;;;15.10;99.90;;;;;;4994600;28;20034;-67
2022/04/27 06:14:10;;;;;;;5.55;4.30;;;15.30;99.90;;;;;;4995015;28;20029;-69
2022/04/27 06:16:36;;;;;;;4.93;3.75;;;15.50;99.90;;;;;;4995216;28;20470;-71
2022/04/27 06:19:02;;;;;;;4.20;3.67;;;15.70;99.90;;;;;;4994619;28;20094;-66
2022/04/27 06:21:31;;;;;;;4.05;3.63;;;15.90;99.90;;;;;;4992233;28;20027;-64
2022/04/27 06:23:58;;;;;;;4.07;3.58;;;16.00;99.90;;;;;;4993066;28;20031;-67
2022/04/27 06:26:24;;;;;;;4.13;3.00;;;16.10;99.90;;;;;;4992992;28;20389;-64
2022/04/27 06:28:49;;;;;;;5.20;3.25;;;16.30;99.90;;;;;;4992722;28;20022;-63
2022/04/27 06:31:15;;;;;;;4.68;3.30;;;16.40;99.90;;;;;;4991784;28;20038;-63
2022/04/27 06:33:41;;;;;;;3.92;3.33;;;16.60;99.90;;;;;;4993486;28;20026;-61
2022/04/27 06:36:07;;;;;;;6.55;4.05;;;16.90;99.90;;;;;;4984537;28;20480;-63
2022/04/27 06:38:33;;;;;;;4.47;3.47;;;17.70;97.70;;;;;;4991375;28;20550;-63
2022/04/27 06:40:59;;;;;;;4.53;3.92;;;20.50;89.90;;;;;;4981789;28;20105;-63
2022/04/27 06:43:24;;;;;;;3.83;3.40;;;23.60;71.50;;;;;;4978795;28;20379;-62
2022/04/27 06:45:50;;;;;;;4.35;3.63;;;25.90;61.50;;;;;;4978039;28;20126;-62
2022/04/27 06:48:16;;;;;;;5.10;4.03;;;27.60;54.00;;;;;;4980560;28;20084;-65
2022/04/27 06:50:42;;;;;;;6.43;4.88;;;28.80;50.90;;;;;;4983018;28;20035;-60
2022/04/27 06:53:09;;;;;;;5.70;4.43;;;29.80;47.40;;;;;;4985793;28;20130;-68
2022/04/27 06:55:35;;;;;;;6.57;3.97;;;30.10;45.60;;;;;;4986476;28;20019;-62
2022/04/27 06:58:01;;;;;;;8.55;5.95;;;30.20;45.20;;;;;;4984438;28;20018;-60
2022/04/27 07:00:26;;;;;;;8.68;5.07;;;30.40;43.80;;;;;;4983019;28;20068;-60
2022/04/27 07:02:52;;;;;;;14.80;8.15;;;30.10;43.70;;;;;;4978333;28;20022;-64
2022/04/27 07:05:20;;;;;;;8.82;7.03;;;28.90;45.00;;;;;;4978754;28;20034;-61
2022/04/27 07:07:47;;;;;;;9.75;6.25;;;28.60;45.00;;;;;;4977242;28;20018;-59
2022/04/27 07:10:14;;;;;;;13.35;7.00;;;29.30;44.10;;;;;;4989331;28;20231;-59
2022/04/27 07:12:40;;;;;;;12.82;8.07;;;28.20;46.20;;;;;;4989254;28;20373;-64
2022/04/27 07:15:06;;;;;;;14.45;6.70;;;29.10;44.40;;;;;;4986406;28;20439;-60
2022/04/27 07:17:32;;;;;;;9.63;6.50;;;29.00;44.30;;;;;;4988610;28;20026;-63
2022/04/27 07:19:58;;;;;;;7.00;5.10;;;28.50;46.00;;;;;;4989054;28;20791;-59
2022/04/27 07:22:24;;;;;;;10.13;4.90;;;29.10;45.70;;;;;;4989877;28;20030;-58
2022/04/27 07:24:50;;;;;;;8.88;5.35;;;30.00;43.80;;;;;;4990375;28;20026;-61
2022/04/27 07:27:18;;;;;;;7.47;4.63;;;30.90;42.20;;;;;;4992144;28;20026;-61
2022/04/27 07:29:44;;;;;;;8.27;4.72;;;31.40;41.60;;;;;;4992914;28;20027;-60
2022/04/27 07:32:10;;;;;;;7.43;5.80;;;31.60;42.00;;;;;;4991672;28;20030;-59
2022/04/27 07:34:36;;;;;;;14.68;7.45;;;30.70;42.30;;;;;;4986338;28;20491;-61
2022/04/27 07:37:03;;;;;;;10.73;6.50;;;30.30;42.30;;;;;;4980165;28;20069;-61
2022/04/27 07:39:29;;;;;;;9.73;5.93;;;30.80;42.50;;;;;;4980105;28;20537;-60
2022/04/27 07:41:55;;;;;;;6.53;4.60;;;31.20;41.40;;;;;;4984882;28;20038;-60
2022/04/27 07:44:21;;;;;;;4.50;4.10;;;31.40;42.00;;;;;;4980246;28;20362;-60
2022/04/27 07:46:47;;;;;;;6.60;4.63;;;32.30;40.50;;;;;;4982655;28;20101;-55
2022/04/27 07:49:19;;;;;;;9.20;5.10;;;32.80;39.40;;;;;;4984140;28;20177;-62
2022/04/27 07:51:47;;;;;;;5.65;4.03;;;32.80;39.50;;;;;;4983918;28;20477;-57
2022/04/27 07:54:13;;;;;;;6.07;4.35;;;32.90;39.40;;;;;;4989413;28;20048;-56
2022/04/27 07:56:39;;;;;;;4.65;3.50;;;33.60;38.90;;;;;;4991916;28;20023;-57
2022/04/27 07:59:05;;;;;;;5.10;3.72;;;33.20;40.00;;;;;;4991122;28;20023;-62
2022/04/27 08:01:31;;;;;;;3.63;3.00;;;33.70;39.60;;;;;;4989911;28;20142;-59
2022/04/27 08:03:57;;;;;;;6.00;4.03;;;34.40;38.80;;;;;;4991530;28;20027;-59
2022/04/27 08:06:23;;;;;;;5.68;3.83;;;34.50;38.40;;;;;;4984480;28;20514;-61
2022/04/27 08:08:48;;;;;;;5.82;4.07;;;34.20;38.30;;;;;;4988256;28;20397;-59
2022/04/27 08:11:15;;;;;;;10.02;4.90;;;34.10;38.90;;;;;;4987693;28;20476;-56
2022/04/27 08:13:42;;;;;;;8.23;5.25;;;34.30;38.80;;;;;;4990155;28;20029;-60
2022/04/27 08:16:10;;;;;;;9.18;5.30;;;33.50;38.40;;;;;;4991167;28;20046;-58
2022/04/27 08:18:45;;;;;;;10.88;5.47;;;33.00;39.80;;;;;;4990077;28;20018;-60
2022/04/27 08:21:14;;;;;;;6.07;4.05;;;32.70;39.40;;;;;;4994450;28;20042;-61
2022/04/27 08:23:41;;;;;;;4.97;3.03;;;32.30;40.30;;;;;;4995024;28;20034;-59
2022/04/27 08:26:08;;;;;;;3.83;3.10;;;32.60;39.20;;;;;;4992129;28;20045;-61
2022/04/27 08:28:37;;;;;;;6.57;3.13;;;33.40;38.20;;;;;;4988999;28;20081;-61
2022/04/27 08:31:03;;;;;;;3.75;2.70;;;33.80;39.00;;;;;;4984014;28;20030;-59
2022/04/27 08:33:29;;;;;;;4.25;2.90;;;33.50;38.30;;;;;;4980150;28;20026;-60
2022/04/27 08:35:57;;;;;;;7.85;4.55;;;33.20;39.50;;;;;;4988618;28;20023;-60
2022/04/27 08:38:23;;;;;;;6.93;3.55;;;33.40;38.80;;;;;;4988715;28;20022;-63
2022/04/27 08:40:49;;;;;;;4.78;3.65;;;33.50;38.60;;;;;;4979619;28;20022;-65
2022/04/27 08:43:15;;;;;;;7.95;4.40;;;33.80;38.20;;;;;;4974471;28;20034;-70
2022/04/27 08:45:45;;;;;;;5.88;3.88;;;33.60;39.40;;;;;;4977122;28;20582;-61
2022/04/27 08:48:12;;;;;;;4.85;3.70;;;33.00;39.70;;;;;;4978446;28;20026;-70
2022/04/27 08:50:39;;;;;;;4.75;3.70;;;32.80;40.30;;;;;;4979075;28;20031;-67
2022/04/27 08:53:05;;;;;;;4.32;3.78;;;33.00;38.30;;;;;;4981246;28;20046;-64
2022/04/27 08:55:31;;;;;;;6.13;3.92;;;33.00;38.90;;;;;;4989016;28;20084;-65
2022/04/27 08:58:11;;;;;;;4.95;4.05;;;33.00;37.90;;;;;;4991216;28;21087;-64
2022/04/27 09:00:37;;;;;;;6.78;4.53;;;33.10;38.70;;;;;;4999531;28;20022;-61
2022/04/27 09:03:30;;;;;;;8.55;5.95;;;32.90;41.10;;;;;;4998118;28;20071;-75
2022/04/27 09:06:04;;;;;;;7.13;6.27;;;32.30;39.20;;;;;;4991387;28;20117;-65
2022/04/27 09:08:43;;;;;;;7.85;5.15;;;32.20;40.10;;;;;;4993130;28;20093;-68
2022/04/27 09:11:21;;;;;;;6.53;5.13;;;32.20;38.80;;;;;;4993806;28;20029;-59
2022/04/27 09:13:48;;;;;;;5.40;4.70;;;32.50;38.40;;;;;;4991297;28;20484;-65
2022/04/27 09:16:15;;;;;;;5.43;3.88;;;32.60;39.10;;;;;;5008742;28;20030;-68
2022/04/27 09:21:56;;;;;;;5.68;4.20;;;32.90;37.20;;;;;;4989243;28;20062;-62
2022/04/27 09:24:22;;;;;;;;;;;32.90;38.20;;;;;;4980970;28;20110;-62
2022/04/27 09:27:09;;;;;;;11.35;6.63;;;33.10;37.70;;;;;;4983860;28;19917;-58
2022/04/27 09:29:35;;;;;;;7.63;5.90;;;32.60;39.60;;;;;;4988192;28;20168;-61
2022/04/27 09:32:03;;;;;;;9.20;6.38;;;32.30;38.40;;;;;;4990765;28;20045;-66
2022/04/27 09:34:42;;;;;;;7.70;5.68;;;32.20;38.70;;;;;;4993802;28;20484;-62
2022/04/27 09:37:18;;;;;;;6.07;5.15;;;31.60;42.20;;;;;;4995935;28;20400;-61
2022/04/27 09:39:46;;;;;;;6.85;4.82;;;31.70;39.40;;;;;;4993402;28;20368;-61
2022/04/27 09:42:14;;;;;;;7.50;4.63;;;32.30;37.40;;;;;;4985653;28;20026;-59
2022/04/27 09:44:40;;;;;;;4.43;4.03;;;32.50;38.50;;;;;;4997965;28;20054;-60
2022/04/27 09:47:07;;;;;;;4.35;3.83;;;32.70;38.30;;;;;;4985818;28;20018;-59
2022/04/27 09:49:36;;;;;;;5.10;4.28;;;32.80;38.40;;;;;;4999790;28;20018;-61
2022/04/27 09:52:04;;;;;;;5.07;4.32;;;33.00;37.60;;;;;;4991869;28;20034;-60
2022/04/27 09:54:34;;;;;;;5.35;4.45;;;33.30;38.90;;;;;;4979001;28;20046;-61
2022/04/27 09:57:02;;;;;;;5.85;3.97;;;33.30;39.70;;;;;;4990122;28;20528;-61
2022/04/27 09:59:30;;;;;;;5.47;3.50;;;33.20;36.00;;;;;;4991576;28;20053;-61
2022/04/27 10:02:07;;;;;;;4.20;3.55;;;33.30;36.10;;;;;;4990438;28;20058;-60
2022/04/27 10:04:34;;;;;;;4.22;3.42;;;33.20;35.10;;;;;;4988469;28;20038;-60
2022/04/27 10:07:02;;;;;;;5.10;3.10;;;32.40;36.90;;;;;;4990139;28;20037;-60
2022/04/27 10:09:31;;;;;;;7.57;3.85;;;32.40;37.30;;;;;;4991915;28;20105;-63
2022/04/27 10:12:00;;;;;;;5.55;3.88;;;32.60;36.40;;;;;;4991547;28;20030;-62
2022/04/27 10:14:27;;;;;;;5.65;3.42;;;32.30;38.30;;;;;;4985416;28;20054;-60
2022/04/27 10:16:53;;;;;;;3.85;3.00;;;31.50;38.70;;;;;;4973250;28;20530;-61
2022/04/27 10:19:20;;;;;;;4.03;3.47;;;31.00;38.30;;;;;;4975262;28;20093;-60
2022/04/27 10:21:57;;;;;;;4.15;3.20;;;30.90;42.20;;;;;;4974624;28;20105;-61
2022/04/27 10:24:37;;;;;;;4.05;3.15;;;31.50;36.80;;;;;;4973271;28;20031;-57
2022/04/27 10:27:22;;;;;;;4.47;3.17;;;32.30;35.20;;;;;;4982809;28;20030;-60
2022/04/27 10:29:57;;;;;;;4.15;2.97;;;32.30;39.00;;;;;;4980962;28;21498;-60
2022/04/27 10:32:36;;;;;;;4.10;2.70;;;32.40;38.30;;;;;;4988348;28;20037;-59
2022/04/27 10:35:27;;;;;;;3.33;2.60;;;32.60;40.60;;;;;;4992679;28;20026;-60
2022/04/27 10:37:57;;;;;;;3.80;2.75;;;32.70;38.10;;;;;;4993089;28;20033;-60
2022/04/27 10:40:42;;;;;;;4.32;2.45;;;33.00;39.80;;;;;;4993944;28;20072;-60
2022/04/27 10:43:07;;;;;;;2.97;2.22;;;33.40;39.80;;;;;;4992799;28;20054;-61
2022/04/27 10:45:35;;;;;;;2.75;2.47;;;33.50;38.20;;;;;;4992737;28;20046;-62
2022/04/27 10:48:04;;;;;;;5.13;2.80;;;33.30;40.40;;;;;;4991321;28;20038;-61
2022/04/27 10:50:33;;;;;;;4.47;2.80;;;32.50;39.10;;;;;;4991795;28;20018;-60
2022/04/27 10:53:17;;;;;;;2.95;2.15;;;31.40;39.10;;;;;;4988233;28;20050;-62
2022/04/27 10:55:45;;;;;;;2.53;2.17;;;30.40;39.80;;;;;;4990297;28;20057;-61
2022/04/27 10:58:35;;;;;;;3.53;2.75;;;30.20;39.30;;;;;;4990851;28;20061;-61
2022/04/27 11:01:05;;;;;;;4.00;2.22;;;30.10;40.40;;;;;;4989888;28;20018;-59
2022/04/27 11:03:35;;;;;;;2.65;2.08;;;29.90;41.50;;;;;;4989040;28;20096;-58
2022/04/27 11:06:09;;;;;;;1.45;1.35;;;29.60;41.40;;;;;;4993138;28;20038;-61
2022/04/27 11:09:12;;;;;;;4.50;2.30;;;30.00;43.30;;;;;;4990037;28;20036;-61
2022/04/27 11:11:55;;;;;;;3.08;1.83;;;30.60;44.80;;;;;;4989370;28;20027;-61
2022/04/27 11:14:21;;;;;;;;;;;31.10;44.60;;;;;;4997177;28;20034;-61
2022/04/27 11:16:48;;;;;;;1.88;1.50;;;31.50;43.30;;;;;;4995054;28;20040;-59
2022/04/27 11:19:15;;;;;;;1.83;1.50;;;31.60;43.50;;;;;;5008950;28;20033;-59
2022/04/27 11:21:41;;;;;;;5.20;2.05;;;31.80;44.60;;;;;;5012966;28;20104;-59
2022/04/27 11:24:11;;;;;;;3.13;1.70;;;31.90;43.30;;;;;;5008196;28;20169;-54
2022/04/27 11:26:41;;;;;;;1.90;1.73;;;31.60;43.20;;;;;;5000165;28;20025;-58
2022/04/27 11:29:08;;;;;;;1.80;1.70;;;31.50;42.90;;;;;;5009990;28;20029;-56
2022/04/27 11:31:34;;;;;;;1.83;1.73;;;31.20;42.50;;;;;;5012520;28;20057;-58
2022/04/27 11:33:59;;;;;;;2.88;1.75;;;30.80;43.40;;;;;;5012260;28;20068;-58
2022/04/27 11:36:27;;;;;;;2.25;2.05;;;30.40;42.50;;;;;;5009803;28;20033;-53
2022/04/27 11:38:54;;;;;;;2.33;1.50;;;29.90;43.00;;;;;;5010631;28;20026;-58
2022/04/27 11:41:24;;;;;;;3.15;2.03;;;29.40;43.10;;;;;;5009868;28;20054;-56
2022/04/27 11:43:51;;;;;;;2.67;2.13;;;29.20;44.40;;;;;;5004847;28;20046;-58
2022/04/27 11:46:18;;;;;;;1.73;1.60;;;29.10;43.90;;;;;;4982876;28;20026;-55
2022/04/27 11:48:47;;;;;;;1.95;1.75;;;28.90;43.70;;;;;;4987569;28;21149;-58
2022/04/27 11:51:13;;;;;;;1.42;1.33;;;28.60;44.60;;;;;;4991160;28;20034;-57
2022/04/27 11:53:48;;;;;;;1.80;1.60;;;28.20;44.60;;;;;;4986694;28;20054;-58
2022/04/27 11:56:19;;;;;;;1.52;1.42;;;27.90;45.70;;;;;;4987564;28;20014;-59
2022/04/27 11:58:45;;;;;;;1.73;1.50;;;27.60;47.00;;;;;;4981504;28;20033;-61
2022/04/27 12:01:23;;;;;;;4.72;2.42;;;27.40;48.00;;;;;;4987545;28;20515;-57
2022/04/27 12:03:49;;;;;;;15.30;4.07;;;26.80;50.80;;;;;;4979202;28;20412;-56
2022/04/27 12:06:19;;;;;;;11.35;4.78;;;25.20;54.30;;;;;;4988558;28;20039;-58
2022/04/27 12:08:45;;;;;;;4.70;2.95;;;23.30;51.90;;;;;;4992265;28;20520;-56
2022/04/27 12:11:21;;;;;;;6.03;3.20;;;22.10;55.80;;;;;;4971437;28;20066;-58
2022/04/27 12:13:47;;;;;;;7.30;4.20;;;21.70;56.70;;;;;;4971101;28;20077;-60
2022/04/27 12:16:13;;;;;;;7.30;3.90;;;21.50;59.40;;;;;;4971063;28;20489;-53
2022/04/27 12:18:50;;;;;;;8.65;3.72;;;20.80;62.50;;;;;;4968834;28;20030;-53
2022/04/27 12:21:21;;;;;;;6.20;2.97;;;21.00;69.00;;;;;;4970529;28;20015;-57
2022/04/27 12:23:47;;;;;;;4.50;3.78;;;21.10;74.30;;;;;;4968946;28;20030;-58
2022/04/27 12:26:13;;;;;;;4.40;4.00;;;20.50;90.90;;;;;;4968729;28;20027;-61
2022/04/27 12:28:47;;;;;;;4.13;3.08;;;20.80;95.70;;;;;;4968078;28;20019;-59
2022/04/27 12:31:15;;;;;;;3.40;2.90;;;21.40;96.30;;;;;;4968534;28;20027;-55
2022/04/27 12:33:47;;;;;;;4.00;3.47;;;22.10;90.50;;;;;;4968937;28;20499;-55
2022/04/27 12:39:05;;;;;;;2.80;2.50;;;23.60;80.80;;;;;;4975424;28;20389;-61
2022/04/27 12:41:43;;;;;;;5.65;3.72;;;23.60;85.90;;;;;;4976874;28;20042;-60
2022/04/27 12:44:18;;;;;;;7.20;3.13;;;23.70;82.40;;;;;;4978116;28;20064;-59
2022/04/27 12:47:07;;;;;;;3.05;2.83;;;24.10;83.10;;;;;;4977357;28;20134;-60
2022/04/27 12:49:35;;;;;;;4.15;3.55;;;24.40;90.80;;;;;;4975753;28;20513;-60
2022/04/27 12:52:21;;;;;;;4.25;2.25;;;24.60;81.60;;;;;;4976012;28;20061;-56
2022/04/27 12:55:00;;;;;;;3.80;3.40;;;24.50;83.30;;;;;;4974964;28;20712;-60
2022/04/27 12:57:25;;;;;;;4.30;2.50;;;24.50;82.60;;;;;;4976879;28;20022;-54
2022/04/27 12:59:57;;;;;;;2.25;2.03;;;24.30;77.50;;;;;;4976833;28;20023;-58
2022/04/27 13:02:23;;;;;;;2.25;2.05;;;24.00;77.60;;;;;;4977156;28;20030;-58
2022/04/27 13:04:48;;;;;;;2.83;2.63;;;23.90;75.90;;;;;;4977740;28;20031;-60
2022/04/27 13:07:14;;;;;;;3.42;3.13;;;23.90;77.30;;;;;;4977757;28;20093;-56